Terminal Aerodrome Forecast
Issued by NWS

Home | Current Version | Previous Version | Text Only | Print | Product List | Glossary On
Versions: 1 2 3 4 5 6 7 8 9 10 11 12 13 14 15 16 17 18 19
068
FTUS42 TJSJ 171138
TAFJPS
TAF
TJPS 171138Z 1712/1812 12005KT P6SM VCTS FEW030CB SCT070
      TEMPO 1712/1714 VRB15G25KT 1SM +TSRA BKN015CB OVC030
     FM171400 12008KT P6SM VCSH SCT035 SCT060
      TEMPO 1714/1717 3SM TSRA BKN020CB OVC040
     FM171800 14012G20KT P6SM SCT035 BKN050
     FM180000 07004KT P6SM SCT040 OVC100
      AMD NOT SKED TIL 180300=

USA.gov is the U.S. government's official web portal to all federal, state and local government web resources and services.